Terminal Aerodrome Forecast
Issued by NWS

Home | Current Version | Previous Version | Text Only | Print | Product List | Glossary On
Versions: 1 2 3 4 5 6 7 8 9 10 11 12 13
000
FTUS42 TJSJ 161720
TAFNCM
TAF
TNCM 161720Z 1618/1718 07014G22KT P6SM VCSH FEW022 SCT040
     FM162300 07012KT P6SM SCT020 SCT050
     FM170300 06014KT P6SM VCSH SCT018 BKN050
     FM171450 08016KT P6SM SCT022 SCT050=

USA.gov is the U.S. government's official web portal to all federal, state and local government web resources and services.